sensor_id;sensor_type;location;lat;lon;timestamp;pressure;altitude;pressure_sealevel;temperature;humidity
25238;BME280;13185;50.872;5.306;2023-02-10T00:00:10;103287.00;;;2.59;89.06
25238;BME280;13185;50.872;5.306;2023-02-10T00:02:36;103294.94;;;2.56;89.10
25238;BME280;13185;50.872;5.306;2023-02-10T00:05:02;103306.44;;;2.56;89.22
25238;BME280;13185;50.872;5.306;2023-02-10T00:07:27;103308.19;;;2.53;89.65
25238;BME280;13185;50.872;5.306;2023-02-10T00:09:53;103306.41;;;2.52;89.96
25238;BME280;13185;50.872;5.306;2023-02-10T00:12:18;103309.06;;;2.52;90.16
25238;BME280;13185;50.872;5.306;2023-02-10T00:14:44;103305.53;;;2.51;89.87
25238;BME280;13185;50.872;5.306;2023-02-10T00:17:09;103307.28;;;2.51;89.76
25238;BME280;13185;50.872;5.306;2023-02-10T00:19:35;103301.97;;;2.49;89.74
25238;BME280;13185;50.872;5.306;2023-02-10T00:22:01;103296.63;;;2.45;89.67
25238;BME280;13185;50.872;5.306;2023-02-10T00:24:27;103310.75;;;2.42;89.49
25238;BME280;13185;50.872;5.306;2023-02-10T00:26:53;103301.84;;;2.36;89.28
25238;BME280;13185;50.872;5.306;2023-02-10T00:29:19;103305.31;;;2.27;89.35
25238;BME280;13185;50.872;5.306;2023-02-10T00:31:45;103300.00;;;2.22;89.41
25238;BME280;13185;50.872;5.306;2023-02-10T00:34:15;103314.94;;;2.17;89.39
25238;BME280;13185;50.872;5.306;2023-02-10T00:36:41;103307.81;;;2.10;89.32
25238;BME280;13185;50.872;5.306;2023-02-10T00:39:12;103308.66;;;2.05;89.32
25238;BME280;13185;50.872;5.306;2023-02-10T00:41:37;103310.34;;;1.98;89.25
25238;BME280;13185;50.872;5.306;2023-02-10T00:44:03;103312.94;;;1.93;89.35
25238;BME280;13185;50.872;5.306;2023-02-10T00:46:29;103318.16;;;1.87;89.65
25238;BME280;13185;50.872;5.306;2023-02-10T00:48:54;103322.53;;;1.84;89.74
25238;BME280;13185;50.872;5.306;2023-02-10T00:51:20;103320.75;;;1.81;89.93
25238;BME280;13185;50.872;5.306;2023-02-10T00:53:46;103324.28;;;1.80;90.06
25238;BME280;13185;50.872;5.306;2023-02-10T00:56:15;103322.53;;;1.81;90.29
25238;BME280;13185;50.872;5.306;2023-02-10T00:58:41;103324.28;;;1.82;90.36
25238;BME280;13185;50.872;5.306;2023-02-10T01:01:08;103324.28;;;1.82;90.86
25238;BME280;13185;50.872;5.306;2023-02-10T01:03:33;103334.00;;;1.83;91.09
25238;BME280;13185;50.872;5.306;2023-02-10T01:05:59;103329.63;;;1.86;91.38
25238;BME280;13185;50.872;5.306;2023-02-10T01:08:25;103329.66;;;1.88;91.47
25238;BME280;13185;50.872;5.306;2023-02-10T01:11:01;103319.97;;;1.90;91.62
25238;BME280;13185;50.872;5.306;2023-02-10T01:13:27;103315.59;;;1.92;91.85
25238;BME280;13185;50.872;5.306;2023-02-10T01:15:53;103314.72;;;1.93;91.85
25238;BME280;13185;50.872;5.306;2023-02-10T01:18:19;103318.22;;;1.92;92.11
25238;BME280;13185;50.872;5.306;2023-02-10T01:20:44;103330.59;;;1.94;92.12
25238;BME280;13185;50.872;5.306;2023-02-10T01:23:10;103328.84;;;1.95;92.32
25238;BME280;13185;50.872;5.306;2023-02-10T01:25:37;103345.63;;;1.97;92.47
25238;BME280;13185;50.872;5.306;2023-02-10T01:28:04;103342.97;;;1.97;92.64
25238;BME280;13185;50.872;5.306;2023-02-10T01:30:30;103346.50;;;1.97;92.90
25238;BME280;13185;50.872;5.306;2023-02-10T01:32:58;103340.38;;;2.00;92.84
25238;BME280;13185;50.872;5.306;2023-02-10T01:35:23;103338.63;;;2.00;93.17
25238;BME280;13185;50.872;5.306;2023-02-10T01:37:51;103343.03;;;2.01;93.29
25238;BME280;13185;50.872;5.306;2023-02-10T01:40:17;103339.50;;;2.01;93.18
25238;BME280;13185;50.872;5.306;2023-02-10T01:42:43;103345.66;;;2.00;93.26
25238;BME280;13185;50.872;5.306;2023-02-10T01:47:45;103350.91;;;1.95;93.26
25238;BME280;13185;50.872;5.306;2023-02-10T01:50:12;103349.13;;;1.93;93.45
25238;BME280;13185;50.872;5.306;2023-02-10T01:52:38;103345.56;;;1.92;93.69
25238;BME280;13185;50.872;5.306;2023-02-10T01:55:09;103353.53;;;1.92;93.85
25238;BME280;13185;50.872;5.306;2023-02-10T01:57:37;103360.56;;;1.92;94.04
25238;BME280;13185;50.872;5.306;2023-02-10T02:00:05;103361.44;;;1.89;94.08
25238;BME280;13185;50.872;5.306;2023-02-10T02:02:37;103362.25;;;1.84;94.42
25238;BME280;13185;50.872;5.306;2023-02-10T02:05:05;103364.00;;;1.82;94.69
25238;BME280;13185;50.872;5.306;2023-02-10T02:07:36;103359.59;;;1.84;94.96
25238;BME280;13185;50.872;5.306;2023-02-10T02:10:04;103351.66;;;1.85;95.09
25238;BME280;13185;50.872;5.306;2023-02-10T02:12:42;103360.50;;;1.86;95.00
25238;BME280;13185;50.872;5.306;2023-02-10T02:15:16;103362.25;;;1.84;95.40
25238;BME280;13185;50.872;5.306;2023-02-10T02:23:43;103359.69;;;1.91;96.13
25238;BME280;13185;50.872;5.306;2023-02-10T02:26:29;103358.84;;;1.95;96.15
25238;BME280;13185;50.872;5.306;2023-02-10T02:34:24;103354.50;;;2.02;96.68
25238;BME280;13185;50.872;5.306;2023-02-10T02:36:57;103357.13;;;2.00;96.96
25238;BME280;13185;50.872;5.306;2023-02-10T02:39:23;103361.53;;;2.00;97.36
25238;BME280;13185;50.872;5.306;2023-02-10T02:42:12;103357.06;;;1.96;97.54
25238;BME280;13185;50.872;5.306;2023-02-10T02:44:39;103362.34;;;1.93;97.85
25238;BME280;13185;50.872;5.306;2023-02-10T02:58:37;103366.66;;;1.85;98.04
25238;BME280;13185;50.872;5.306;2023-02-10T03:01:13;103361.34;;;1.83;97.86
25238;BME280;13185;50.872;5.306;2023-02-10T03:03:40;103358.69;;;1.80;98.14
25238;BME280;13185;50.872;5.306;2023-02-10T03:06:06;103356.03;;;1.79;98.30
25238;BME280;13185;50.872;5.306;2023-02-10T03:08:34;103349.78;;;1.75;98.57
25238;BME280;13185;50.872;5.306;2023-02-10T03:11:01;103347.09;;;1.70;98.73
25238;BME280;13185;50.872;5.306;2023-02-10T03:13:27;103343.50;;;1.65;99.10
25238;BME280;13185;50.872;5.306;2023-02-10T03:15:52;103335.53;;;1.61;99.30
25238;BME280;13185;50.872;5.306;2023-02-10T03:18:18;103336.38;;;1.58;99.01
25238;BME280;13185;50.872;5.306;2023-02-10T03:20:43;103327.50;;;1.55;99.01
25238;BME280;13185;50.872;5.306;2023-02-10T03:23:09;103328.34;;;1.51;99.28
25238;BME280;13185;50.872;5.306;2023-02-10T03:25:35;103326.56;;;1.48;99.30
25238;BME280;13185;50.872;5.306;2023-02-10T03:28:01;103333.59;;;1.46;99.67
25238;BME280;13185;50.872;5.306;2023-02-10T03:30:26;103332.66;;;1.44;99.75
25238;BME280;13185;50.872;5.306;2023-02-10T03:32:52;103331.78;;;1.43;99.75
25238;BME280;13185;50.872;5.306;2023-02-10T03:35:19;103337.06;;;1.42;99.86
25238;BME280;13185;50.872;5.306;2023-02-10T03:37:44;103334.41;;;1.40;99.79
25238;BME280;13185;50.872;5.306;2023-02-10T03:40:11;103344.06;;;1.38;99.56
25238;BME280;13185;50.872;5.306;2023-02-10T03:42:36;103344.94;;;1.36;99.28
25238;BME280;13185;50.872;5.306;2023-02-10T03:45:02;103357.22;;;1.34;99.06
25238;BME280;13185;50.872;5.306;2023-02-10T03:47:28;103356.31;;;1.33;98.98
25238;BME280;13185;50.872;5.306;2023-02-10T03:49:53;103350.09;;;1.28;98.97
25238;BME280;13185;50.872;5.306;2023-02-10T03:52:18;103350.97;;;1.26;98.87
25238;BME280;13185;50.872;5.306;2023-02-10T03:54:44;103350.00;;;1.22;98.77
25238;BME280;13185;50.872;5.306;2023-02-10T03:57:10;103356.13;;;1.18;98.63
25238;BME280;13185;50.872;5.306;2023-02-10T03:59:36;103352.53;;;1.13;98.55
25238;BME280;13185;50.872;5.306;2023-02-10T04:02:02;103349.81;;;1.07;98.24
25238;BME280;13185;50.872;5.306;2023-02-10T04:04:28;103361.16;;;1.01;98.13
25238;BME280;13185;50.872;5.306;2023-02-10T04:06:53;103365.53;;;0.98;97.88
25238;BME280;13185;50.872;5.306;2023-02-10T04:09:19;103367.19;;;0.93;98.04
25238;BME280;13185;50.872;5.306;2023-02-10T04:11:44;103370.66;;;0.87;98.04
25238;BME280;13185;50.872;5.306;2023-02-10T04:14:10;103383.75;;;0.79;97.83
25238;BME280;13185;50.872;5.306;2023-02-10T04:16:35;103391.59;;;0.75;97.96
25238;BME280;13185;50.872;5.306;2023-02-10T04:19:01;103391.50;;;0.70;97.97
25238;BME280;13185;50.872;5.306;2023-02-10T04:21:26;103397.56;;;0.63;98.05
25238;BME280;13185;50.872;5.306;2023-02-10T04:23:52;103393.97;;;0.60;97.77
25238;BME280;13185;50.872;5.306;2023-02-10T04:26:18;103401.00;;;0.57;97.59
25238;BME280;13185;50.872;5.306;2023-02-10T04:28:43;103390.38;;;0.54;97.56
25238;BME280;13185;50.872;5.306;2023-02-10T04:31:09;103391.16;;;0.50;97.74
25238;BME280;13185;50.872;5.306;2023-02-10T04:33:35;103390.25;;;0.47;97.62
25238;BME280;13185;50.872;5.306;2023-02-10T04:36:02;103388.44;;;0.43;97.73
25238;BME280;13185;50.872;5.306;2023-02-10T04:38:28;103385.66;;;0.37;97.75
25238;BME280;13185;50.872;5.306;2023-02-10T04:40:54;103382.97;;;0.32;97.82
25238;BME280;13185;50.872;5.306;2023-02-10T04:43:20;103382.00;;;0.28;97.97
25238;BME280;13185;50.872;5.306;2023-02-10T04:45:46;103389.88;;;0.25;97.98
25238;BME280;13185;50.872;5.306;2023-02-10T04:48:11;103388.06;;;0.23;97.95
25238;BME280;13185;50.872;5.306;2023-02-10T04:50:39;103395.06;;;0.21;97.91
25238;BME280;13185;50.872;5.306;2023-02-10T04:53:05;103396.72;;;0.16;98.25
25238;BME280;13185;50.872;5.306;2023-02-10T04:55:31;103383.47;;;0.13;98.27
25238;BME280;13185;50.872;5.306;2023-02-10T04:57:57;103391.28;;;0.08;98.19
25238;BME280;13185;50.872;5.306;2023-02-10T05:00:23;103391.22;;;0.04;98.37
25238;BME280;13185;50.872;5.306;2023-02-10T05:02:48;103394.69;;;0.01;98.34
25238;BME280;13185;50.872;5.306;2023-02-10T05:05:14;103392.84;;;-0.02;98.69
25238;BME280;13185;50.872;5.306;2023-02-10T05:07:40;103395.50;;;-0.02;98.80
25238;BME280;13185;50.872;5.306;2023-02-10T05:10:06;103380.50;;;-0.04;98.92
25238;BME280;13185;50.872;5.306;2023-02-10T05:12:31;103379.56;;;-0.08;99.04
25238;BME280;13185;50.872;5.306;2023-02-10T05:14:57;103379.53;;;-0.09;99.22
25238;BME280;13185;50.872;5.306;2023-02-10T05:17:22;103379.50;;;-0.11;99.20
25238;BME280;13185;50.872;5.306;2023-02-10T05:19:47;103380.31;;;-0.15;99.31
25238;BME280;13185;50.872;5.306;2023-02-10T05:22:13;103382.91;;;-0.16;99.71
25238;BME280;13185;50.872;5.306;2023-02-10T05:24:38;103385.53;;;-0.18;99.89
25238;BME280;13185;50.872;5.306;2023-02-10T05:27:04;103386.38;;;-0.20;99.88
25238;BME280;13185;50.872;5.306;2023-02-10T05:29:29;103388.91;;;-0.23;99.94
25238;BME280;13185;50.872;5.306;2023-02-10T05:31:55;103388.00;;;-0.25;99.85
25238;BME280;13185;50.872;5.306;2023-02-10T05:34:20;103391.44;;;-0.30;99.97
25238;BME280;13185;50.872;5.306;2023-02-10T05:36:46;103389.66;;;-0.31;99.86
25238;BME280;13185;50.872;5.306;2023-02-10T05:39:11;103393.13;;;-0.32;100.00
25238;BME280;13185;50.872;5.306;2023-02-10T05:41:50;103385.16;;;-0.36;100.00
25238;BME280;13185;50.872;5.306;2023-02-10T05:44:16;103392.16;;;-0.38;100.00
25238;BME280;13185;50.872;5.306;2023-02-10T05:46:42;103398.25;;;-0.41;100.00
25238;BME280;13185;50.872;5.306;2023-02-10T05:49:07;103396.41;;;-0.43;100.00
25238;BME280;13185;50.872;5.306;2023-02-10T05:51:33;103397.25;;;-0.46;100.00
25238;BME280;13185;50.872;5.306;2023-02-10T05:53:58;103392.78;;;-0.50;100.00
25238;BME280;13185;50.872;5.306;2023-02-10T05:56:24;103397.94;;;-0.54;100.00
25238;BME280;13185;50.872;5.306;2023-02-10T05:58:49;103404.91;;;-0.58;100.00
25238;BME280;13185;50.872;5.306;2023-02-10T06:01:15;103396.94;;;-0.61;100.00
25238;BME280;13185;50.872;5.306;2023-02-10T06:03:40;103398.59;;;-0.65;100.00
25238;BME280;13185;50.872;5.306;2023-02-10T06:06:06;103395.03;;;-0.67;100.00
25238;BME280;13185;50.872;5.306;2023-02-10T06:08:31;103393.25;;;-0.68;100.00
25238;BME280;13185;50.872;5.306;2023-02-10T06:10:57;103390.59;;;-0.69;100.00
25238;BME280;13185;50.872;5.306;2023-02-10T06:13:22;103393.19;;;-0.71;100.00
25238;BME280;13185;50.872;5.306;2023-02-10T06:15:48;103406.34;;;-0.72;100.00
25238;BME280;13185;50.872;5.306;2023-02-10T06:18:13;103407.13;;;-0.76;100.00
25238;BME280;13185;50.872;5.306;2023-02-10T06:20:39;103411.47;;;-0.78;100.00
25238;BME280;13185;50.872;5.306;2023-02-10T06:23:05;103411.41;;;-0.81;100.00
25238;BME280;13185;50.872;5.306;2023-02-10T06:25:31;103415.81;;;-0.80;100.00
25238;BME280;13185;50.872;5.306;2023-02-10T06:27:56;103411.41;;;-0.81;100.00
25238;BME280;13185;50.872;5.306;2023-02-10T06:30:22;103413.16;;;-0.82;100.00
25238;BME280;13185;50.872;5.306;2023-02-10T06:32:47;103417.44;;;-0.85;100.00
25238;BME280;13185;50.872;5.306;2023-02-10T06:35:13;103425.31;;;-0.87;100.00
25238;BME280;13185;50.872;5.306;2023-02-10T06:37:38;103429.59;;;-0.92;100.00
25238;BME280;13185;50.872;5.306;2023-02-10T06:40:04;103423.38;;;-0.94;100.00
25238;BME280;13185;50.872;5.306;2023-02-10T06:42:30;103430.41;;;-0.95;100.00
25238;BME280;13185;50.872;5.306;2023-02-10T06:44:56;103430.38;;;-0.96;100.00
25238;BME280;13185;50.872;5.306;2023-02-10T06:47:22;103428.53;;;-1.00;100.00
25238;BME280;13185;50.872;5.306;2023-02-10T06:49:47;103432.00;;;-1.01;100.00
25238;BME280;13185;50.872;5.306;2023-02-10T06:52:13;103429.34;;;-1.03;100.00
25238;BME280;13185;50.872;5.306;2023-02-10T06:54:38;103424.94;;;-1.04;100.00
25238;BME280;13185;50.872;5.306;2023-02-10T06:57:04;103427.50;;;-1.05;100.00
25238;BME280;13185;50.872;5.306;2023-02-10T06:59:32;103429.28;;;-1.04;100.00
25238;BME280;13185;50.872;5.306;2023-02-10T07:01:57;103431.00;;;-1.06;100.00
25238;BME280;13185;50.872;5.306;2023-02-10T07:04:29;103435.38;;;-1.07;100.00
25238;BME280;13185;50.872;5.306;2023-02-10T07:06:56;103440.66;;;-1.07;100.00
25238;BME280;13185;50.872;5.306;2023-02-10T07:09:22;103439.78;;;-1.06;100.00
25238;BME280;13185;50.872;5.306;2023-02-10T07:11:48;103435.38;;;-1.07;100.00
25238;BME280;13185;50.872;5.306;2023-02-10T07:14:14;103426.59;;;-1.07;100.00
25238;BME280;13185;50.872;5.306;2023-02-10T07:16:39;103422.22;;;-1.07;100.00
25238;BME280;13185;50.872;5.306;2023-02-10T07:19:05;103425.72;;;-1.06;100.00
25238;BME280;13185;50.872;5.306;2023-02-10T07:21:31;103419.56;;;-1.07;100.00
25238;BME280;13185;50.872;5.306;2023-02-10T07:23:57;103420.47;;;-1.06;100.00
25238;BME280;13185;50.872;5.306;2023-02-10T07:26:22;103422.22;;;-1.07;100.00
25238;BME280;13185;50.872;5.306;2023-02-10T07:28:48;103426.66;;;-1.04;100.00
25238;BME280;13185;50.872;5.306;2023-02-10T07:31:14;103424.09;;;-1.03;100.00
25238;BME280;13185;50.872;5.306;2023-02-10T07:33:40;103435.53;;;-1.01;100.00
25238;BME280;13185;50.872;5.306;2023-02-10T07:36:06;103429.47;;;-0.97;100.00
25238;BME280;13185;50.872;5.306;2023-02-10T07:38:32;103432.16;;;-0.95;100.00
25238;BME280;13185;50.872;5.306;2023-02-10T07:40:58;103431.34;;;-0.93;100.00
25238;BME280;13185;50.872;5.306;2023-02-10T07:43:24;103438.41;;;-0.92;100.00
25238;BME280;13185;50.872;5.306;2023-02-10T07:45:58;103436.69;;;-0.90;100.00
25238;BME280;13185;50.872;5.306;2023-02-10T07:48:23;103437.59;;;-0.88;100.00
25238;BME280;13185;50.872;5.306;2023-02-10T07:50:49;103437.63;;;-0.86;100.00
25238;BME280;13185;50.872;5.306;2023-02-10T07:53:17;103431.59;;;-0.82;100.00
25238;BME280;13185;50.872;5.306;2023-02-10T07:55:43;103434.31;;;-0.77;100.00
25238;BME280;13185;50.872;5.306;2023-02-10T07:58:08;103448.50;;;-0.72;100.00
25238;BME280;13185;50.872;5.306;2023-02-10T08:00:35;103444.16;;;-0.70;100.00
25238;BME280;13185;50.872;5.306;2023-02-10T08:03:00;103445.13;;;-0.65;100.00
25238;BME280;13185;50.872;5.306;2023-02-10T08:05:26;103440.00;;;-0.61;100.00
25238;BME280;13185;50.872;5.306;2023-02-10T08:07:53;103443.59;;;-0.55;100.00
25238;BME280;13185;50.872;5.306;2023-02-10T08:10:19;103449.00;;;-0.51;100.00
25238;BME280;13185;50.872;5.306;2023-02-10T08:12:45;103464.00;;;-0.47;100.00
25238;BME280;13185;50.872;5.306;2023-02-10T08:15:11;103465.00;;;-0.42;100.00
25238;BME280;13185;50.872;5.306;2023-02-10T08:17:38;103461.63;;;-0.36;100.00
25238;BME280;13185;50.872;5.306;2023-02-10T08:20:07;103468.78;;;-0.31;100.00
25238;BME280;13185;50.872;5.306;2023-02-10T08:22:33;103468.00;;;-0.25;100.00
25238;BME280;13185;50.872;5.306;2023-02-10T08:24:59;103474.28;;;-0.20;100.00
25238;BME280;13185;50.872;5.306;2023-02-10T08:27:25;103477.03;;;-0.14;100.00
25238;BME280;13185;50.872;5.306;2023-02-10T08:29:51;103471.91;;;-0.08;100.00
25238;BME280;13185;50.872;5.306;2023-02-10T08:32:16;103467.63;;;-0.01;100.00
25238;BME280;13185;50.872;5.306;2023-02-10T08:34:47;103475.69;;;0.07;100.00
25238;BME280;13185;50.872;5.306;2023-02-10T08:37:14;103475.06;;;0.18;100.00
25238;BME280;13185;50.872;5.306;2023-02-10T08:39:39;103477.91;;;0.29;100.00
25238;BME280;13185;50.872;5.306;2023-02-10T08:42:05;103478.09;;;0.40;100.00
25238;BME280;13185;50.872;5.306;2023-02-10T08:44:31;103480.97;;;0.52;100.00
25238;BME280;13185;50.872;5.306;2023-02-10T08:46:57;103468.81;;;0.62;100.00
25238;BME280;13185;50.872;5.306;2023-02-10T08:49:22;103455.75;;;0.68;100.00
25238;BME280;13185;50.872;5.306;2023-02-10T08:51:53;103448.72;;;0.68;100.00
25238;BME280;13185;50.872;5.306;2023-02-10T08:54:19;103455.75;;;0.68;100.00
25238;BME280;13185;50.872;5.306;2023-02-10T08:56:45;103442.59;;;0.71;100.00
25238;BME280;13185;50.872;5.306;2023-02-10T08:59:11;103444.44;;;0.75;100.00
25238;BME280;13185;50.872;5.306;2023-02-10T09:01:37;103460.38;;;0.81;100.00
25238;BME280;13185;50.872;5.306;2023-02-10T09:04:02;103455.19;;;0.87;100.00
25238;BME280;13185;50.872;5.306;2023-02-10T09:06:33;103462.41;;;0.97;100.00
25238;BME280;13185;50.872;5.306;2023-02-10T09:09:08;103459.03;;;1.06;100.00
25238;BME280;13185;50.872;5.306;2023-02-10T09:11:34;103471.56;;;1.18;100.00
25238;BME280;13185;50.872;5.306;2023-02-10T09:14:00;103462.00;;;1.27;100.00
25238;BME280;13185;50.872;5.306;2023-02-10T09:16:25;103463.06;;;1.38;100.00
25238;BME280;13185;50.872;5.306;2023-02-10T09:18:51;103470.25;;;1.49;100.00
25238;BME280;13185;50.872;5.306;2023-02-10T09:21:17;103466.88;;;1.57;100.00
25238;BME280;13185;50.872;5.306;2023-02-10T09:23:42;103461.66;;;1.65;100.00
25238;BME280;13185;50.872;5.306;2023-02-10T09:26:08;103463.53;;;1.73;100.00
25238;BME280;13185;50.872;5.306;2023-02-10T09:28:35;103463.69;;;1.84;100.00
25238;BME280;13185;50.872;5.306;2023-02-10T09:31:04;103460.28;;;1.94;100.00
25238;BME280;13185;50.872;5.306;2023-02-10T09:33:30;103462.19;;;2.06;100.00
25238;BME280;13185;50.872;5.306;2023-02-10T09:35:55;103461.44;;;2.18;100.00
25238;BME280;13185;50.872;5.306;2023-02-10T09:38:21;103465.94;;;2.26;100.00
25238;BME280;13185;50.872;5.306;2023-02-10T09:40:51;103461.72;;;2.41;100.00
25238;BME280;13185;50.872;5.306;2023-02-10T09:46:08;103452.31;;;2.73;100.00
25238;BME280;13185;50.872;5.306;2023-02-10T09:52:02;103463.13;;;2.99;100.00
25238;BME280;13185;50.872;5.306;2023-02-10T09:54:31;103445.53;;;3.12;100.00
25238;BME280;13185;50.872;5.306;2023-02-10T09:57:04;103436.75;;;3.19;100.00
25238;BME280;13185;50.872;5.306;2023-02-10T09:59:34;103441.22;;;3.25;100.00
25238;BME280;13185;50.872;5.306;2023-02-10T10:02:12;103443.91;;;3.32;100.00
25238;BME280;13185;50.872;5.306;2023-02-10T10:04:39;103450.16;;;3.42;100.00
25238;BME280;13185;50.872;5.306;2023-02-10T10:07:34;103452.88;;;3.53;100.00
25238;BME280;13185;50.872;5.306;2023-02-10T10:10:12;103464.44;;;3.62;100.00
25238;BME280;13185;50.872;5.306;2023-02-10T10:12:40;103460.94;;;3.66;100.00
25238;BME280;13185;50.872;5.306;2023-02-10T10:15:15;103457.41;;;3.70;100.00
25238;BME280;13185;50.872;5.306;2023-02-10T10:17:48;103461.00;;;3.75;100.00
25238;BME280;13185;50.872;5.306;2023-02-10T10:26:04;103469.06;;;4.03;100.00
25238;BME280;13185;50.872;5.306;2023-02-10T10:31:14;103467.31;;;4.14;100.00
25238;BME280;13185;50.872;5.306;2023-02-10T10:36:12;103472.69;;;4.34;100.00
25238;BME280;13185;50.872;5.306;2023-02-10T10:38:40;103470.03;;;4.35;100.00
25238;BME280;13185;50.872;5.306;2023-02-10T10:41:11;103463.88;;;4.43;100.00
25238;BME280;13185;50.872;5.306;2023-02-10T10:43:49;103453.28;;;4.49;100.00
25238;BME280;13185;50.872;5.306;2023-02-10T10:49:11;103459.47;;;4.64;100.00
25238;BME280;13185;50.872;5.306;2023-02-10T10:51:37;103465.66;;;4.68;100.00
25238;BME280;13185;50.872;5.306;2023-02-10T10:54:05;103458.59;;;4.73;100.00
25238;BME280;13185;50.872;5.306;2023-02-10T10:56:35;103461.25;;;4.79;100.00
25238;BME280;13185;50.872;5.306;2023-02-10T10:59:20;103462.13;;;4.89;100.00
25238;BME280;13185;50.872;5.306;2023-02-10T11:01:51;103454.16;;;4.97;100.00
25238;BME280;13185;50.872;5.306;2023-02-10T11:04:26;103446.19;;;5.00;100.00
25238;BME280;13185;50.872;5.306;2023-02-10T11:06:56;103448.84;;;5.04;100.00
25238;BME280;13185;50.872;5.306;2023-02-10T11:11:47;103432.91;;;5.13;100.00
25238;BME280;13185;50.872;5.306;2023-02-10T11:14:16;103446.19;;;5.21;100.00
25238;BME280;13185;50.872;5.306;2023-02-10T11:16:45;103447.94;;;5.25;100.00
25238;BME280;13185;50.872;5.306;2023-02-10T11:19:30;103444.41;;;5.32;100.00
25238;BME280;13185;50.872;5.306;2023-02-10T11:21:56;103442.59;;;5.39;100.00
25238;BME280;13185;50.872;5.306;2023-02-10T11:24:25;103440.84;;;5.42;98.95
25238;BME280;13185;50.872;5.306;2023-02-10T11:29:19;103437.22;;;5.65;99.04
25238;BME280;13185;50.872;5.306;2023-02-10T11:31:45;103422.06;;;5.79;99.07
25238;BME280;13185;50.872;5.306;2023-02-10T11:34:38;103425.59;;;5.87;97.35
25238;BME280;13185;50.872;5.306;2023-02-10T11:37:32;103427.31;;;6.05;97.46
25238;BME280;13185;50.872;5.306;2023-02-10T11:39:59;103421.88;;;6.20;97.22
25238;BME280;13185;50.872;5.306;2023-02-10T11:42:29;103419.16;;;6.32;96.41
25238;BME280;13185;50.872;5.306;2023-02-10T11:47:47;103415.44;;;6.53;95.26
25238;BME280;13185;50.872;5.306;2023-02-10T11:50:24;103421.59;;;6.63;93.91
25238;BME280;13185;50.872;5.306;2023-02-10T11:52:50;103415.34;;;6.65;92.26
25238;BME280;13185;50.872;5.306;2023-02-10T11:55:16;103415.34;;;6.65;90.87
25238;BME280;13185;50.872;5.306;2023-02-10T11:57:57;103425.97;;;6.72;90.52
25238;BME280;13185;50.872;5.306;2023-02-10T12:01:00;103409.94;;;6.76;89.58
25238;BME280;13185;50.872;5.306;2023-02-10T12:06:25;103407.25;;;6.76;88.18
25238;BME280;13185;50.872;5.306;2023-02-10T12:26:10;103380.19;;;7.20;84.44
25238;BME280;13185;50.872;5.306;2023-02-10T12:40:49;103364.81;;;7.39;83.47
25238;BME280;13185;50.872;5.306;2023-02-10T12:54:14;103357.56;;;7.52;82.59
25238;BME280;13185;50.872;5.306;2023-02-10T12:56:58;103362.06;;;7.47;82.00
25238;BME280;13185;50.872;5.306;2023-02-10T12:59:34;103350.56;;;7.42;82.46
25238;BME280;13185;50.872;5.306;2023-02-10T13:02:13;103348.81;;;7.41;83.15
25238;BME280;13185;50.872;5.306;2023-02-10T13:04:44;103358.53;;;7.45;83.67
25238;BME280;13185;50.872;5.306;2023-02-10T13:09:52;103349.66;;;7.44;84.36
25238;BME280;13185;50.872;5.306;2023-02-10T13:12:26;103346.91;;;7.50;83.98
25238;BME280;13185;50.872;5.306;2023-02-10T13:14:57;103339.72;;;7.56;84.17
25238;BME280;13185;50.872;5.306;2023-02-10T13:17:26;103340.53;;;7.62;84.39
25238;BME280;13185;50.872;5.306;2023-02-10T13:20:01;103347.59;;;7.65;84.36
25238;BME280;13185;50.872;5.306;2023-02-10T13:25:12;103342.16;;;7.74;84.59
25238;BME280;13185;50.872;5.306;2023-02-10T13:28:01;103325.13;;;7.79;84.75
25238;BME280;13185;50.872;5.306;2023-02-10T13:30:58;103338.38;;;7.87;84.82
25238;BME280;13185;50.872;5.306;2023-02-10T13:36:12;103335.63;;;7.92;84.16
25238;BME280;13185;50.872;5.306;2023-02-10T13:38:39;103334.81;;;7.88;83.81
25238;BME280;13185;50.872;5.306;2023-02-10T13:41:05;103337.44;;;7.91;83.63
25238;BME280;13185;50.872;5.306;2023-02-10T13:43:56;103334.75;;;7.91;83.84
25238;BME280;13185;50.872;5.306;2023-02-10T13:46:27;103338.41;;;7.86;83.93
25238;BME280;13185;50.872;5.306;2023-02-10T13:48:57;103344.75;;;7.78;84.43
25238;BME280;13185;50.872;5.306;2023-02-10T13:51:37;103340.41;;;7.71;84.39
25238;BME280;13185;50.872;5.306;2023-02-10T13:54:04;103343.13;;;7.67;84.19
25238;BME280;13185;50.872;5.306;2023-02-10T13:56:32;103343.16;;;7.65;84.39
25238;BME280;13185;50.872;5.306;2023-02-10T13:58:58;103329.81;;;7.64;84.78
25238;BME280;13185;50.872;5.306;2023-02-10T14:01:38;103330.69;;;7.64;85.04
25238;BME280;13185;50.872;5.306;2023-02-10T14:04:26;103336.81;;;7.71;85.75
25238;BME280;13185;50.872;5.306;2023-02-10T14:06:53;103342.16;;;7.71;86.02
25238;BME280;13185;50.872;5.306;2023-02-10T14:11:58;103335.00;;;7.76;86.79
25238;BME280;13185;50.872;5.306;2023-02-10T14:14:35;103319.84;;;7.76;86.71
25238;BME280;13185;50.872;5.306;2023-02-10T14:19:40;103324.31;;;7.74;86.80
25238;BME280;13185;50.872;5.306;2023-02-10T14:22:17;103326.09;;;7.75;86.87
25238;BME280;13185;50.872;5.306;2023-02-10T14:24:46;103326.06;;;7.77;87.03
25238;BME280;13185;50.872;5.306;2023-02-10T14:27:14;103319.81;;;7.78;87.60
25238;BME280;13185;50.872;5.306;2023-02-10T14:29:47;103328.75;;;7.75;87.81
25238;BME280;13185;50.872;5.306;2023-02-10T14:32:15;103309.19;;;7.75;87.97
25238;BME280;13185;50.872;5.306;2023-02-10T14:34:57;103314.44;;;7.79;87.72
25238;BME280;13185;50.872;5.306;2023-02-10T14:37:23;103318.00;;;7.81;87.62
25238;BME280;13185;50.872;5.306;2023-02-10T14:39:59;103323.31;;;7.83;87.19
25238;BME280;13185;50.872;5.306;2023-02-10T14:42:28;103314.38;;;7.86;87.37
25238;BME280;13185;50.872;5.306;2023-02-10T14:44:57;103319.72;;;7.86;87.27
25238;BME280;13185;50.872;5.306;2023-02-10T14:47:34;103318.84;;;7.84;87.37